sensor_id;sensor_type;location;lat;lon;timestamp;pressure;altitude;pressure_sealevel;temperature;humidity
46111;BME280;31849;55.992;37.252;2023-04-29T00:03:45;98898.53;;;6.05;65.44
46111;BME280;31849;55.992;37.252;2023-04-29T00:08:50;98907.13;;;6.05;65.14
46111;BME280;31849;55.992;37.252;2023-04-29T00:13:54;98911.41;;;6.02;65.92
46111;BME280;31849;55.992;37.252;2023-04-29T00:18:57;98897.53;;;5.95;65.48
46111;BME280;31849;55.992;37.252;2023-04-29T00:24:03;98909.69;;;6.04;65.07
46111;BME280;31849;55.992;37.252;2023-04-29T00:29:07;98901.06;;;6.00;65.50
46111;BME280;31849;55.992;37.252;2023-04-29T00:34:10;98892.47;;;6.03;65.30
46111;BME280;31849;55.992;37.252;2023-04-29T00:39:15;98889.94;;;6.09;64.88
46111;BME280;31849;55.992;37.252;2023-04-29T00:44:18;98889.97;;;6.15;65.12
46111;BME280;31849;55.992;37.252;2023-04-29T00:49:22;98883.03;;;6.05;65.28
46111;BME280;31849;55.992;37.252;2023-04-29T00:54:27;98879.59;;;6.04;65.42
46111;BME280;31849;55.992;37.252;2023-04-29T00:59:30;98865.72;;;5.94;65.33
46111;BME280;31849;55.992;37.252;2023-04-29T01:04:34;98863.13;;;5.91;65.07
46111;BME280;31849;55.992;37.252;2023-04-29T01:09:49;98875.28;;;6.03;64.73
46111;BME280;31849;55.992;37.252;2023-04-29T01:15:03;98883.78;;;5.93;65.40
46111;BME280;31849;55.992;37.252;2023-04-29T01:20:08;98889.00;;;5.99;65.07
46111;BME280;31849;55.992;37.252;2023-04-29T01:25:14;98888.19;;;6.02;65.19
46111;BME280;31849;55.992;37.252;2023-04-29T01:30:25;98888.19;;;6.03;65.37
46111;BME280;31849;55.992;37.252;2023-04-29T01:35:43;98883.78;;;5.94;64.51
46111;BME280;31849;55.992;37.252;2023-04-29T01:40:55;98880.31;;;5.89;65.18
46111;BME280;31849;55.992;37.252;2023-04-29T01:46:02;98877.59;;;5.69;65.51
46111;BME280;31849;55.992;37.252;2023-04-29T01:51:06;98874.19;;;5.73;65.35
46111;BME280;31849;55.992;37.252;2023-04-29T01:56:11;98875.81;;;5.62;65.44
46111;BME280;31849;55.992;37.252;2023-04-29T02:01:15;98868.09;;;5.65;64.60
46111;BME280;31849;55.992;37.252;2023-04-29T02:06:18;98861.19;;;5.64;65.06
46111;BME280;31849;55.992;37.252;2023-04-29T02:11:23;98866.41;;;5.67;64.28
46111;BME280;31849;55.992;37.252;2023-04-29T02:16:27;98866.34;;;5.64;64.71
46111;BME280;31849;55.992;37.252;2023-04-29T02:21:30;98880.09;;;5.60;65.25
46111;BME280;31849;55.992;37.252;2023-04-29T02:26:37;98890.44;;;5.64;64.40
46111;BME280;31849;55.992;37.252;2023-04-29T02:31:41;98888.69;;;5.60;65.12
46111;BME280;31849;55.992;37.252;2023-04-29T02:36:44;98905.09;;;5.66;64.76
46111;BME280;31849;55.992;37.252;2023-04-29T02:41:53;98914.59;;;5.74;64.21
46111;BME280;31849;55.992;37.252;2023-04-29T02:46:56;98913.63;;;5.61;64.62
46111;BME280;31849;55.992;37.252;2023-04-29T02:52:00;98917.13;;;5.70;64.04
46111;BME280;31849;55.992;37.252;2023-04-29T02:57:05;98914.47;;;5.60;64.45
46111;BME280;31849;55.992;37.252;2023-04-29T03:02:09;98900.56;;;5.41;64.54
46111;BME280;31849;55.992;37.252;2023-04-29T03:07:12;98901.34;;;5.36;64.15
46111;BME280;31849;55.992;37.252;2023-04-29T03:12:19;98915.84;;;5.23;63.68
46111;BME280;31849;55.992;37.252;2023-04-29T03:17:23;98937.28;;;5.20;64.88
46111;BME280;31849;55.992;37.252;2023-04-29T03:22:26;98957.09;;;5.23;64.20
46111;BME280;31849;55.992;37.252;2023-04-29T03:27:31;98960.53;;;5.23;64.37
46111;BME280;31849;55.992;37.252;2023-04-29T03:32:35;98977.75;;;5.27;64.06
46111;BME280;31849;55.992;37.252;2023-04-29T03:37:38;98985.53;;;5.31;64.08
46111;BME280;31849;55.992;37.252;2023-04-29T03:42:46;98986.53;;;5.42;63.63
46111;BME280;31849;55.992;37.252;2023-04-29T03:47:50;99001.34;;;5.64;63.21
46111;BME280;31849;55.992;37.252;2023-04-29T03:52:54;99003.88;;;5.58;63.58
46111;BME280;31849;55.992;37.252;2023-04-29T03:58:00;99011.69;;;5.68;63.42
46111;BME280;31849;55.992;37.252;2023-04-29T04:03:03;99015.28;;;5.80;63.13
46111;BME280;31849;55.992;37.252;2023-04-29T04:08:07;99005.84;;;5.86;62.72
46111;BME280;31849;55.992;37.252;2023-04-29T04:13:13;99017.19;;;5.97;63.59
46111;BME280;31849;55.992;37.252;2023-04-29T04:18:17;99000.84;;;6.03;63.32
46111;BME280;31849;55.992;37.252;2023-04-29T04:23:20;99019.97;;;6.25;62.37
46111;BME280;31849;55.992;37.252;2023-04-29T04:28:25;99020.09;;;6.37;61.54
46111;BME280;31849;55.992;37.252;2023-04-29T04:33:28;99019.38;;;6.63;62.03
46111;BME280;31849;55.992;37.252;2023-04-29T04:38:32;99013.38;;;6.65;61.51
46111;BME280;31849;55.992;37.252;2023-04-29T04:43:37;99019.47;;;6.77;60.90
46111;BME280;31849;55.992;37.252;2023-04-29T04:48:42;99021.25;;;6.90;60.47
46111;BME280;31849;55.992;37.252;2023-04-29T04:53:46;99012.69;;;6.99;61.09
46111;BME280;31849;55.992;37.252;2023-04-29T04:58:51;99005.00;;;7.10;60.78
46111;BME280;31849;55.992;37.252;2023-04-29T05:03:54;99014.59;;;7.40;60.47
46111;BME280;31849;55.992;37.252;2023-04-29T05:08:58;99018.94;;;7.49;60.59
46111;BME280;31849;55.992;37.252;2023-04-29T05:14:03;99019.84;;;7.68;59.28
46111;BME280;31849;55.992;37.252;2023-04-29T05:19:07;99017.25;;;7.68;59.15
46111;BME280;31849;55.992;37.252;2023-04-29T05:24:10;99024.19;;;7.93;59.04
46111;BME280;31849;55.992;37.252;2023-04-29T05:29:15;99005.22;;;8.10;57.75
46111;BME280;31849;55.992;37.252;2023-04-29T05:34:19;99026.81;;;8.24;58.00
46111;BME280;31849;55.992;37.252;2023-04-29T05:39:23;99023.34;;;8.36;57.88
46111;BME280;31849;55.992;37.252;2023-04-29T05:44:29;99022.50;;;8.51;57.89
46111;BME280;31849;55.992;37.252;2023-04-29T05:49:32;99027.66;;;8.68;57.43
46111;BME280;31849;55.992;37.252;2023-04-29T05:54:35;99035.38;;;8.97;56.77
46111;BME280;31849;55.992;37.252;2023-04-29T05:59:40;99029.19;;;9.32;56.37
46111;BME280;31849;55.992;37.252;2023-04-29T06:04:44;99038.63;;;9.52;56.31
46111;BME280;31849;55.992;37.252;2023-04-29T06:09:49;99046.41;;;9.52;55.83
46111;BME280;31849;55.992;37.252;2023-04-29T06:14:54;99054.63;;;10.24;53.49
46111;BME280;31849;55.992;37.252;2023-04-29T06:19:57;99050.69;;;10.79;52.46
46111;BME280;31849;55.992;37.252;2023-04-29T06:25:01;99063.13;;;10.47;53.28
46111;BME280;31849;55.992;37.252;2023-04-29T06:30:07;99064.59;;;10.74;52.38
46111;BME280;31849;55.992;37.252;2023-04-29T06:35:11;99065.47;;;10.77;52.10
46111;BME280;31849;55.992;37.252;2023-04-29T06:40:14;99070.56;;;10.86;52.36
46111;BME280;31849;55.992;37.252;2023-04-29T06:45:19;99070.59;;;10.84;52.13
46111;BME280;31849;55.992;37.252;2023-04-29T06:50:24;99071.13;;;11.16;51.78
46111;BME280;31849;55.992;37.252;2023-04-29T06:55:29;99075.25;;;11.34;50.79
46111;BME280;31849;55.992;37.252;2023-04-29T07:00:33;99088.41;;;11.23;50.80
46111;BME280;31849;55.992;37.252;2023-04-29T07:05:37;99096.97;;;11.33;51.08
46111;BME280;31849;55.992;37.252;2023-04-29T07:10:42;99098.59;;;11.41;50.59
46111;BME280;31849;55.992;37.252;2023-04-29T07:15:47;99104.19;;;15.32;45.04
46111;BME280;31849;55.992;37.252;2023-04-29T07:20:51;99092.38;;;17.64;39.01
46111;BME280;31849;55.992;37.252;2023-04-29T07:25:56;99105.53;;;18.56;36.61
46111;BME280;31849;55.992;37.252;2023-04-29T07:31:01;99107.38;;;18.96;35.95
46111;BME280;31849;55.992;37.252;2023-04-29T07:36:05;99111.50;;;20.21;33.85
46111;BME280;31849;55.992;37.252;2023-04-29T07:41:10;99116.06;;;19.19;34.31
46111;BME280;31849;55.992;37.252;2023-04-29T07:46:15;99119.69;;;22.86;29.87
46111;BME280;31849;55.992;37.252;2023-04-29T07:51:19;99121.63;;;23.57;27.97
46111;BME280;31849;55.992;37.252;2023-04-29T07:56:22;99114.78;;;22.47;28.32
46111;BME280;31849;55.992;37.252;2023-04-29T08:01:28;99136.06;;;20.60;30.73
46111;BME280;31849;55.992;37.252;2023-04-29T08:06:32;99138.56;;;17.71;34.03
46111;BME280;31849;55.992;37.252;2023-04-29T08:11:35;99145.31;;;20.87;30.13
46111;BME280;31849;55.992;37.252;2023-04-29T08:16:42;99148.75;;;23.91;26.05
46111;BME280;31849;55.992;37.252;2023-04-29T08:21:45;99149.34;;;23.96;25.08
46111;BME280;31849;55.992;37.252;2023-04-29T08:26:49;99157.13;;;20.98;27.89
46111;BME280;31849;55.992;37.252;2023-04-29T08:31:54;99156.97;;;19.69;29.56
46111;BME280;31849;55.992;37.252;2023-04-29T08:36:58;99162.47;;;19.23;30.09
46111;BME280;31849;55.992;37.252;2023-04-29T08:42:07;99158.75;;;19.68;28.17
46111;BME280;31849;55.992;37.252;2023-04-29T08:47:12;99155.97;;;19.72;28.22
46111;BME280;31849;55.992;37.252;2023-04-29T08:52:17;99149.78;;;19.52;27.89
46111;BME280;31849;55.992;37.252;2023-04-29T08:57:22;99149.28;;;19.03;28.89
46111;BME280;31849;55.992;37.252;2023-04-29T09:02:28;99158.75;;;18.86;28.71
46111;BME280;31849;55.992;37.252;2023-04-29T09:07:32;99165.97;;;18.13;29.12
46111;BME280;31849;55.992;37.252;2023-04-29T09:12:37;99165.34;;;17.57;30.13
46111;BME280;31849;55.992;37.252;2023-04-29T09:17:43;99180.75;;;17.18;30.94
46111;BME280;31849;55.992;37.252;2023-04-29T09:22:47;99170.63;;;17.32;30.29
46111;BME280;31849;55.992;37.252;2023-04-29T09:27:51;99175.13;;;16.75;30.59
46111;BME280;31849;55.992;37.252;2023-04-29T09:33:07;99180.56;;;16.12;31.30
46111;BME280;31849;55.992;37.252;2023-04-29T09:38:12;99195.44;;;15.47;32.53
46111;BME280;31849;55.992;37.252;2023-04-29T09:43:17;99188.81;;;15.34;32.83
46111;BME280;31849;55.992;37.252;2023-04-29T09:48:30;99183.63;;;15.64;32.34
46111;BME280;31849;55.992;37.252;2023-04-29T09:53:36;99192.22;;;16.02;30.03
46111;BME280;31849;55.992;37.252;2023-04-29T09:58:40;99185.38;;;16.83;29.93
46111;BME280;31849;55.992;37.252;2023-04-29T10:03:45;99173.78;;;17.42;27.53
46111;BME280;31849;55.992;37.252;2023-04-29T10:08:50;99213.41;;;16.82;28.10
46111;BME280;31849;55.992;37.252;2023-04-29T10:13:54;99207.00;;;16.05;27.96
46111;BME280;31849;55.992;37.252;2023-04-29T10:19:03;99208.09;;;15.97;28.50
46111;BME280;31849;55.992;37.252;2023-04-29T10:24:10;99210.41;;;16.08;27.48
46111;BME280;31849;55.992;37.252;2023-04-29T10:29:16;99216.06;;;15.60;27.67
46111;BME280;31849;55.992;37.252;2023-04-29T10:34:22;99212.34;;;15.69;27.61
46111;BME280;31849;55.992;37.252;2023-04-29T10:39:33;99236.53;;;16.11;27.38
46111;BME280;31849;55.992;37.252;2023-04-29T10:45:17;99231.44;;;16.07;27.53
46111;BME280;31849;55.992;37.252;2023-04-29T10:50:22;99238.19;;;16.15;27.62
46111;BME280;31849;55.992;37.252;2023-04-29T10:55:26;99236.91;;;16.87;26.26
46111;BME280;31849;55.992;37.252;2023-04-29T11:00:30;99236.19;;;17.10;26.48
46111;BME280;31849;55.992;37.252;2023-04-29T11:05:35;99235.69;;;16.41;27.76
46111;BME280;31849;55.992;37.252;2023-04-29T11:10:40;99243.94;;;16.27;26.51
46111;BME280;31849;55.992;37.252;2023-04-29T11:15:44;99247.09;;;16.40;26.87
46111;BME280;31849;55.992;37.252;2023-04-29T11:21:17;99250.84;;;16.31;26.41
46111;BME280;31849;55.992;37.252;2023-04-29T11:26:20;99251.66;;;16.02;26.79
46111;BME280;31849;55.992;37.252;2023-04-29T11:31:26;99251.06;;;15.59;26.18
46111;BME280;31849;55.992;37.252;2023-04-29T11:36:33;99257.28;;;15.20;26.82
46111;BME280;31849;55.992;37.252;2023-04-29T11:41:37;99253.19;;;15.08;27.78
46111;BME280;31849;55.992;37.252;2023-04-29T11:46:40;99266.25;;;15.10;27.47
46111;BME280;31849;55.992;37.252;2023-04-29T11:51:45;99256.97;;;15.33;26.84
46111;BME280;31849;55.992;37.252;2023-04-29T11:56:49;99268.16;;;15.38;27.57
46111;BME280;31849;55.992;37.252;2023-04-29T12:01:57;99266.31;;;15.76;26.70
46111;BME280;31849;55.992;37.252;2023-04-29T12:07:03;99254.53;;;15.92;26.39
46111;BME280;31849;55.992;37.252;2023-04-29T12:12:07;99258.09;;;15.90;25.91
46111;BME280;31849;55.992;37.252;2023-04-29T12:17:10;99247.63;;;15.55;25.85
46111;BME280;31849;55.992;37.252;2023-04-29T12:22:16;99244.75;;;15.99;25.95
46111;BME280;31849;55.992;37.252;2023-04-29T12:27:21;99239.28;;;16.07;25.50
46111;BME280;31849;55.992;37.252;2023-04-29T12:32:27;99240.28;;;16.03;25.00
46111;BME280;31849;55.992;37.252;2023-04-29T12:37:32;99241.13;;;16.03;25.69
46111;BME280;31849;55.992;37.252;2023-04-29T12:42:38;99249.91;;;16.02;26.16
46111;BME280;31849;55.992;37.252;2023-04-29T12:47:43;99249.25;;;15.94;25.63
46111;BME280;31849;55.992;37.252;2023-04-29T12:52:49;99251.44;;;15.43;26.46
46111;BME280;31849;55.992;37.252;2023-04-29T12:57:52;99250.72;;;15.01;26.00
46111;BME280;31849;55.992;37.252;2023-04-29T13:02:56;99255.50;;;14.85;26.97
46111;BME280;31849;55.992;37.252;2023-04-29T13:08:01;99254.84;;;14.75;26.73
46111;BME280;31849;55.992;37.252;2023-04-29T13:13:07;99259.69;;;14.51;27.40
46111;BME280;31849;55.992;37.252;2023-04-29T13:18:10;99257.00;;;14.54;27.58
46111;BME280;31849;55.992;37.252;2023-04-29T13:23:15;99255.25;;;14.55;26.99
46111;BME280;31849;55.992;37.252;2023-04-29T13:28:19;99260.13;;;14.31;27.45
46111;BME280;31849;55.992;37.252;2023-04-29T13:33:23;99264.50;;;14.29;27.94
46111;BME280;31849;55.992;37.252;2023-04-29T13:38:28;99253.78;;;14.43;27.85
46111;BME280;31849;55.992;37.252;2023-04-29T13:43:31;99253.78;;;14.43;26.86
46111;BME280;31849;55.992;37.252;2023-04-29T13:48:41;99254.72;;;14.39;26.91
46111;BME280;31849;55.992;37.252;2023-04-29T13:54:06;99251.78;;;14.12;26.56
46111;BME280;31849;55.992;37.252;2023-04-29T13:59:12;99247.03;;;13.87;27.73
46111;BME280;31849;55.992;37.252;2023-04-29T14:04:36;99247.44;;;13.67;28.12
46111;BME280;31849;55.992;37.252;2023-04-29T14:09:42;99252.72;;;13.64;28.50
46111;BME280;31849;55.992;37.252;2023-04-29T14:14:45;99250.13;;;13.61;28.32
46111;BME280;31849;55.992;37.252;2023-04-29T14:19:48;99256.28;;;13.59;29.03
46111;BME280;31849;55.992;37.252;2023-04-29T14:24:54;99242.25;;;13.64;28.86
46111;BME280;31849;55.992;37.252;2023-04-29T14:29:57;99250.19;;;13.58;28.64
46111;BME280;31849;55.992;37.252;2023-04-29T14:35:01;99252.97;;;13.49;28.43
46111;BME280;31849;55.992;37.252;2023-04-29T14:40:08;99246.00;;;13.51;28.78
46111;BME280;31849;55.992;37.252;2023-04-29T14:45:11;99242.28;;;13.61;28.75
46111;BME280;31849;55.992;37.252;2023-04-29T14:50:15;99245.84;;;14.04;28.22
46111;BME280;31849;55.992;37.252;2023-04-29T14:55:20;99253.97;;;14.32;27.52
46111;BME280;31849;55.992;37.252;2023-04-29T15:00:26;99250.50;;;14.32;27.75
46111;BME280;31849;55.992;37.252;2023-04-29T15:05:30;99243.38;;;14.38;27.42
46111;BME280;31849;55.992;37.252;2023-04-29T15:10:35;99251.91;;;14.48;27.38
46111;BME280;31849;55.992;37.252;2023-04-29T15:15:38;99256.16;;;14.54;27.11
46111;BME280;31849;55.992;37.252;2023-04-29T15:20:42;99255.16;;;14.61;26.94
46111;BME280;31849;55.992;37.252;2023-04-29T15:25:47;99260.03;;;14.36;26.90
46111;BME280;31849;55.992;37.252;2023-04-29T15:30:51;99254.63;;;14.01;27.11
46111;BME280;31849;55.992;37.252;2023-04-29T15:35:54;99260.44;;;13.70;28.19
46111;BME280;31849;55.992;37.252;2023-04-29T15:41:00;99261.78;;;13.42;28.82
46111;BME280;31849;55.992;37.252;2023-04-29T15:46:04;99264.97;;;13.05;29.75
46111;BME280;31849;55.992;37.252;2023-04-29T15:51:08;99267.16;;;12.75;30.46
46111;BME280;31849;55.992;37.252;2023-04-29T15:56:16;99274.38;;;12.56;30.84
46111;BME280;31849;55.992;37.252;2023-04-29T16:01:19;99264.22;;;12.37;30.47
46111;BME280;31849;55.992;37.252;2023-04-29T16:06:23;99275.50;;;12.38;30.97
46111;BME280;31849;55.992;37.252;2023-04-29T16:11:30;99278.97;;;12.38;30.57
46111;BME280;31849;55.992;37.252;2023-04-29T16:16:33;99286.81;;;12.37;30.89
46111;BME280;31849;55.992;37.252;2023-04-29T16:21:37;99288.75;;;12.21;31.74
46111;BME280;31849;55.992;37.252;2023-04-29T16:26:42;99301.78;;;12.21;31.95
46111;BME280;31849;55.992;37.252;2023-04-29T16:31:45;99307.09;;;12.13;32.71
46111;BME280;31849;55.992;37.252;2023-04-29T16:36:50;99310.66;;;12.03;33.17
46111;BME280;31849;55.992;37.252;2023-04-29T16:41:55;99305.63;;;11.81;33.99
46111;BME280;31849;55.992;37.252;2023-04-29T16:46:58;99305.03;;;11.53;33.83
46111;BME280;31849;55.992;37.252;2023-04-29T16:52:02;99315.63;;;11.34;34.00
46111;BME280;31849;55.992;37.252;2023-04-29T16:57:08;99318.34;;;11.14;35.00
46111;BME280;31849;55.992;37.252;2023-04-29T17:02:11;99324.59;;;10.88;36.04
46111;BME280;31849;55.992;37.252;2023-04-29T17:07:15;99323.84;;;10.68;36.38
46111;BME280;31849;55.992;37.252;2023-04-29T17:12:21;99326.50;;;10.51;37.81
46111;BME280;31849;55.992;37.252;2023-04-29T17:17:25;99339.59;;;10.21;39.40
46111;BME280;31849;55.992;37.252;2023-04-29T17:22:28;99351.78;;;9.93;40.31
46111;BME280;31849;55.992;37.252;2023-04-29T17:27:34;99351.78;;;9.68;38.99
46111;BME280;31849;55.992;37.252;2023-04-29T17:32:38;99353.53;;;9.37;41.33
46111;BME280;31849;55.992;37.252;2023-04-29T17:37:42;99357.81;;;9.15;41.91
46111;BME280;31849;55.992;37.252;2023-04-29T17:42:47;99365.53;;;8.98;42.56
46111;BME280;31849;55.992;37.252;2023-04-29T17:47:51;99363.78;;;8.78;43.46
46111;BME280;31849;55.992;37.252;2023-04-29T17:52:55;99372.31;;;8.53;43.88
46111;BME280;31849;55.992;37.252;2023-04-29T17:58:00;99378.25;;;8.35;44.67
46111;BME280;31849;55.992;37.252;2023-04-29T18:03:03;99389.41;;;8.23;44.21
46111;BME280;31849;55.992;37.252;2023-04-29T18:08:07;99392.75;;;8.03;44.98
46111;BME280;31849;55.992;37.252;2023-04-29T18:13:12;99404.75;;;7.92;46.26
46111;BME280;31849;55.992;37.252;2023-04-29T18:18:15;99395.97;;;7.76;44.71
46111;BME280;31849;55.992;37.252;2023-04-29T18:23:18;99403.63;;;7.59;46.75
46111;BME280;31849;55.992;37.252;2023-04-29T18:28:24;99406.09;;;7.47;46.50
46111;BME280;31849;55.992;37.252;2023-04-29T18:33:29;99418.03;;;7.32;48.24
46111;BME280;31849;55.992;37.252;2023-04-29T18:38:33;99421.38;;;7.22;47.88
46111;BME280;31849;55.992;37.252;2023-04-29T18:43:38;99422.09;;;7.10;48.68
46111;BME280;31849;55.992;37.252;2023-04-29T18:48:42;99440.09;;;6.99;48.71
46111;BME280;31849;55.992;37.252;2023-04-29T18:53:45;99441.66;;;6.88;48.80
46111;BME280;31849;55.992;37.252;2023-04-29T18:58:50;99453.59;;;6.78;49.31
46111;BME280;31849;55.992;37.252;2023-04-29T19:03:54;99450.09;;;6.72;49.49
46111;BME280;31849;55.992;37.252;2023-04-29T19:08:58;99447.31;;;6.56;50.21
46111;BME280;31849;55.992;37.252;2023-04-29T19:14:03;99454.03;;;6.45;51.09
46111;BME280;31849;55.992;37.252;2023-04-29T19:19:07;99462.44;;;6.30;50.71
46111;BME280;31849;55.992;37.252;2023-04-29T19:24:11;99458.81;;;6.19;51.48
46111;BME280;31849;55.992;37.252;2023-04-29T19:29:16;99470.72;;;6.09;51.49
46111;BME280;31849;55.992;37.252;2023-04-29T19:34:19;99467.97;;;5.99;51.90
46111;BME280;31849;55.992;37.252;2023-04-29T19:39:23;99475.56;;;5.92;51.73
46111;BME280;31849;55.992;37.252;2023-04-29T19:44:29;99475.53;;;5.90;51.31
46111;BME280;31849;55.992;37.252;2023-04-29T19:49:33;99477.09;;;5.80;51.27
46111;BME280;31849;55.992;37.252;2023-04-29T19:54:36;99486.44;;;5.74;51.38
46111;BME280;31849;55.992;37.252;2023-04-29T19:59:43;99486.31;;;5.66;52.35
46111;BME280;31849;55.992;37.252;2023-04-29T20:04:46;99488.72;;;5.55;51.87
46111;BME280;31849;55.992;37.252;2023-04-29T20:09:50;99488.56;;;5.49;52.31
46111;BME280;31849;55.992;37.252;2023-04-29T20:14:56;99479.88;;;5.42;52.11
46111;BME280;31849;55.992;37.252;2023-04-29T20:19:59;99452.59;;;5.09;52.55
46111;BME280;31849;55.992;37.252;2023-04-29T20:25:05;99483.81;;;5.25;52.71
46111;BME280;31849;55.992;37.252;2023-04-29T20:30:10;99491.44;;;5.19;53.14
46111;BME280;31849;55.992;37.252;2023-04-29T20:35:14;99496.41;;;5.08;53.08
46111;BME280;31849;55.992;37.252;2023-04-29T20:40:18;99487.38;;;4.87;52.90
46111;BME280;31849;55.992;37.252;2023-04-29T20:45:23;99491.34;;;4.73;53.63
46111;BME280;31849;55.992;37.252;2023-04-29T20:50:27;99500.28;;;4.49;53.95
46111;BME280;31849;55.992;37.252;2023-04-29T20:55:30;99489.19;;;4.52;54.03
46111;BME280;31849;55.992;37.252;2023-04-29T21:00:35;99493.50;;;4.53;54.32
46111;BME280;31849;55.992;37.252;2023-04-29T21:05:39;99496.75;;;4.44;54.75
46111;BME280;31849;55.992;37.252;2023-04-29T21:10:42;99496.50;;;4.35;55.10
46111;BME280;31849;55.992;37.252;2023-04-29T21:15:48;99499.00;;;4.32;55.19
46111;BME280;31849;55.992;37.252;2023-04-29T21:20:52;99495.38;;;4.22;55.47
46111;BME280;31849;55.992;37.252;2023-04-29T21:25:55;99497.00;;;4.18;55.44
46111;BME280;31849;55.992;37.252;2023-04-29T21:31:00;99490.06;;;4.14;55.50
46111;BME280;31849;55.992;37.252;2023-04-29T21:36:04;99489.06;;;4.09;55.57
46111;BME280;31849;55.992;37.252;2023-04-29T21:41:13;99469.72;;;3.90;55.86
46111;BME280;31849;55.992;37.252;2023-04-29T21:46:21;99494.84;;;4.00;56.02
46111;BME280;31849;55.992;37.252;2023-04-29T21:51:26;99493.78;;;3.91;56.20
46111;BME280;31849;55.992;37.252;2023-04-29T21:56:30;99482.47;;;3.85;56.01
46111;BME280;31849;55.992;37.252;2023-04-29T22:01:35;99486.69;;;3.82;56.18
46111;BME280;31849;55.992;37.252;2023-04-29T22:06:49;99480.34;;;3.69;55.74
46111;BME280;31849;55.992;37.252;2023-04-29T22:11:53;99482.72;;;3.61;56.67
46111;BME280;31849;55.992;37.252;2023-04-29T22:16:58;99470.53;;;3.54;56.67
46111;BME280;31849;55.992;37.252;2023-04-29T22:22:01;99428.59;;;3.23;56.56
46111;BME280;31849;55.992;37.252;2023-04-29T22:27:04;99478.94;;;3.15;57.40
46111;BME280;31849;55.992;37.252;2023-04-29T22:32:09;99484.91;;;3.14;57.44
46111;BME280;31849;55.992;37.252;2023-04-29T22:37:13;99484.19;;;3.20;57.18
46111;BME280;31849;55.992;37.252;2023-04-29T22:42:17;99490.00;;;3.12;57.47
46111;BME280;31849;55.992;37.252;2023-04-29T22:47:22;99469.47;;;3.14;57.64
46111;BME280;31849;55.992;37.252;2023-04-29T22:52:25;99468.56;;;3.12;57.75
46111;BME280;31849;55.992;37.252;2023-04-29T22:57:29;99471.97;;;3.11;57.68
46111;BME280;31849;55.992;37.252;2023-04-29T23:02:34;99466.78;;;3.09;58.29
46111;BME280;31849;55.992;37.252;2023-04-29T23:07:37;99469.41;;;3.11;57.33
46111;BME280;31849;55.992;37.252;2023-04-29T23:12:40;99469.88;;;2.97;57.46
46111;BME280;31849;55.992;37.252;2023-04-29T23:17:45;99471.59;;;2.97;58.09
46111;BME280;31849;55.992;37.252;2023-04-29T23:22:48;99476.31;;;2.83;58.09
46111;BME280;31849;55.992;37.252;2023-04-29T23:27:52;99472.84;;;2.81;57.92
46111;BME280;31849;55.992;37.252;2023-04-29T23:32:58;99473.66;;;2.80;58.24
46111;BME280;31849;55.992;37.252;2023-04-29T23:38:01;99470.91;;;2.74;58.25
46111;BME280;31849;55.992;37.252;2023-04-29T23:43:05;99471.69;;;2.71;58.18
46111;BME280;31849;55.992;37.252;2023-04-29T23:48:10;99469.97;;;2.70;58.46
46111;BME280;31849;55.992;37.252;2023-04-29T23:53:14;99459.53;;;2.66;58.32
46111;BME280;31849;55.992;37.252;2023-04-29T23:58:18;99475.41;;;2.52;58.50
